createdAt,value
2022-09-06T00:00:19.661Z,101740.81
2022-09-06T00:02:48.768Z,101740.69
2022-09-06T00:05:16.836Z,101734.75
2022-09-06T00:07:44.890Z,101734.00
2022-09-06T00:10:13.636Z,101727.66
2022-09-06T00:12:43.091Z,101723.38
2022-09-06T00:15:11.905Z,101727.91
2022-09-06T00:17:39.988Z,101727.78
2022-09-06T00:20:10.231Z,101730.47
2022-09-06T00:22:38.697Z,101724.34
2022-09-06T00:25:08.264Z,101716.47
2022-09-06T00:27:36.828Z,101717.38
2022-09-06T00:30:07.361Z,101717.38
2022-09-06T00:32:35.401Z,101708.44
2022-09-06T00:35:03.448Z,101707.38
2022-09-06T00:37:31.493Z,101712.81
2022-09-06T00:39:59.556Z,101711.25
2022-09-06T00:42:27.618Z,101701.38
2022-09-06T00:44:55.828Z,101707.88
2022-09-06T00:47:27.215Z,101698.84
2022-09-06T00:49:59.318Z,101700.78
2022-09-06T00:52:28.858Z,101705.13
2022-09-06T00:54:57.357Z,101708.78
2022-09-06T00:57:27.136Z,101713.94
2022-09-06T00:59:57.134Z,101708.78
2022-09-06T01:02:26.823Z,101701.53
2022-09-06T01:04:55.913Z,101717.63
2022-09-06T01:07:46.323Z,101711.38
2022-09-06T01:10:31.718Z,101710.50
2022-09-06T01:13:11.747Z,101711.47
2022-09-06T01:15:48.820Z,101708.78
2022-09-06T01:18:40.924Z,101707.22
2022-09-06T01:21:19.926Z,101707.16
2022-09-06T01:24:12.999Z,101696.69
2022-09-06T01:27:15.850Z,101692.09
2022-09-06T01:29:51.230Z,101701.75
2022-09-06T01:32:25.669Z,101702.88
2022-09-06T01:34:57.821Z,101701.81
2022-09-06T01:37:26.316Z,101695.59
2022-09-06T01:39:54.363Z,101701.88
2022-09-06T01:42:27.333Z,101701.94
2022-09-06T01:45:00.998Z,101692.16
2022-09-06T01:47:39.763Z,101689.25
2022-09-06T01:50:34.406Z,101695.72
2022-09-06T01:53:13.485Z,101693.09
2022-09-06T01:55:49.849Z,101691.47
2022-09-06T01:58:39.503Z,101684.16
2022-09-06T02:01:17.285Z,101683.44
2022-09-06T02:03:53.865Z,101687.88
2022-09-06T02:06:25.382Z,101686.13
2022-09-06T02:08:58.233Z,101692.50
2022-09-06T02:11:29.427Z,101690.88
2022-09-06T02:14:06.061Z,101691.69
2022-09-06T02:16:39.371Z,101691.69
2022-09-06T02:19:13.082Z,101675.44
2022-09-06T02:21:45.297Z,101674.69
2022-09-06T02:24:19.449Z,101673.84
2022-09-06T02:26:48.424Z,101685.38
2022-09-06T02:29:17.834Z,101690.88
2022-09-06T02:31:52.082Z,101681.22
2022-09-06T02:34:21.128Z,101677.66
2022-09-06T02:36:49.533Z,101685.78
2022-09-06T02:39:17.641Z,101679.22
2022-09-06T02:41:48.089Z,101676.59
2022-09-06T02:44:16.710Z,101686.47
2022-09-06T02:46:45.137Z,101688.28
2022-09-06T02:49:14.550Z,101667.03
2022-09-06T02:51:42.673Z,101668.88
2022-09-06T02:54:10.724Z,101671.50
2022-09-06T02:56:38.776Z,101675.94
2022-09-06T02:59:06.820Z,101665.19
2022-09-06T03:01:35.278Z,101674.34
2022-09-06T03:04:03.968Z,101657.25
2022-09-06T03:06:33.694Z,101658.91
2022-09-06T03:09:01.930Z,101659.81
2022-09-06T03:11:30.014Z,101659.81
2022-09-06T03:13:58.068Z,101653.66
2022-09-06T03:16:26.312Z,101656.22
2022-09-06T03:18:54.384Z,101646.50
2022-09-06T03:21:22.429Z,101643.81
2022-09-06T03:23:52.430Z,101654.59
2022-09-06T03:26:20.474Z,101641.22
2022-09-06T03:28:48.508Z,101641.31
2022-09-06T03:31:16.624Z,101638.56
2022-09-06T03:33:44.725Z,101638.56
2022-09-06T03:36:12.893Z,101628.88
2022-09-06T03:38:40.938Z,101622.41
2022-09-06T03:41:10.413Z,101633.06
2022-09-06T03:43:38.511Z,101625.03
2022-09-06T03:46:07.024Z,101627.00
2022-09-06T03:48:35.166Z,101628.78
2022-09-06T03:51:03.200Z,101630.41
2022-09-06T03:53:31.307Z,101628.72
2022-09-06T03:55:59.771Z,101633.06
2022-09-06T03:58:32.805Z,101630.47
2022-09-06T04:01:05.942Z,101635.13
2022-09-06T04:03:35.049Z,101634.19
2022-09-06T04:06:03.599Z,101635.06
2022-09-06T04:08:31.904Z,101637.25
2022-09-06T04:11:00.630Z,101629.03
2022-09-06T04:13:31.466Z,101618.22
2022-09-06T04:15:59.988Z,101635.25
2022-09-06T04:18:28.660Z,101631.63
2022-09-06T04:20:57.935Z,101634.41
2022-09-06T04:23:27.684Z,101640.78
2022-09-06T04:25:59.118Z,101635.56
2022-09-06T04:28:27.978Z,101638.41
2022-09-06T04:31:04.072Z,101633.03
2022-09-06T04:33:33.768Z,101639.13
2022-09-06T04:36:03.772Z,101629.31
2022-09-06T04:38:35.427Z,101630.28
2022-09-06T04:41:03.454Z,101641.25
2022-09-06T04:43:31.554Z,101641.25
2022-09-06T04:46:06.316Z,101632.41
2022-09-06T04:48:34.473Z,101629.78
2022-09-06T04:51:02.514Z,101628.88
2022-09-06T04:53:30.589Z,101628.59
2022-09-06T04:55:59.445Z,101626.56
2022-09-06T04:58:27.532Z,101630.78
2022-09-06T05:00:55.886Z,101625.28
2022-09-06T05:03:25.448Z,101628.94
2022-09-06T05:05:53.465Z,101626.03
2022-09-06T05:08:21.582Z,101627.78
2022-09-06T05:10:52.508Z,101618.13
2022-09-06T05:13:20.591Z,101620.66
2022-09-06T05:15:48.658Z,101627.72
2022-09-06T05:18:16.736Z,101631.22
2022-09-06T05:20:52.908Z,101619.25
2022-09-06T05:23:21.201Z,101618.09
2022-09-06T05:25:49.705Z,101624.34
2022-09-06T05:28:18.386Z,101626.41
2022-09-06T05:30:46.703Z,101629.03
2022-09-06T05:33:20.068Z,101626.56
2022-09-06T05:35:50.078Z,101627.44
2022-09-06T05:38:18.390Z,101622.75
2022-09-06T05:40:46.429Z,101624.81
2022-09-06T05:43:14.448Z,101619.38
2022-09-06T05:45:42.574Z,101616.44
2022-09-06T05:48:10.650Z,101617.28
2022-09-06T05:50:38.741Z,101627.16
2022-09-06T05:53:08.162Z,101625.06
2022-09-06T05:55:39.057Z,101621.72
2022-09-06T05:58:09.220Z,101623.75
2022-09-06T06:00:37.603Z,101633.38
2022-09-06T06:03:05.685Z,101647.06
2022-09-06T06:05:33.764Z,101644.97
2022-09-06T06:08:01.873Z,101633.53
2022-09-06T06:10:34.322Z,101633.47
2022-09-06T06:13:04.805Z,101626.66
2022-09-06T06:15:33.412Z,101627.66
2022-09-06T06:18:01.452Z,101615.75
2022-09-06T06:20:29.605Z,101613.19
2022-09-06T06:22:57.961Z,101614.19
2022-09-06T06:25:26.316Z,101610.69
2022-09-06T06:27:55.775Z,101631.22
2022-09-06T06:30:23.840Z,101621.47
2022-09-06T06:32:51.861Z,101623.69
2022-09-06T06:35:19.937Z,101620.66
2022-09-06T06:37:47.953Z,101630.09
2022-09-06T06:40:16.130Z,101624.84
2022-09-06T06:42:44.199Z,101613.09
2022-09-06T06:45:13.755Z,101603.88
2022-09-06T06:47:41.810Z,101602.88
2022-09-06T06:50:10.731Z,101591.31
2022-09-06T06:52:39.492Z,101598.56
2022-09-06T06:55:07.960Z,101601.97
2022-09-06T06:57:36.037Z,101600.97
2022-09-06T07:00:05.515Z,101608.00
2022-09-06T07:02:35.086Z,101603.94
2022-09-06T07:07:51.614Z,101581.47
2022-09-06T07:10:35.609Z,101574.31
2022-09-06T07:13:04.340Z,101585.69
2022-09-06T07:15:32.378Z,101587.13
2022-09-06T07:18:02.195Z,101590.47
2022-09-06T07:20:30.963Z,101605.72
2022-09-06T07:25:48.397Z,101614.53
2022-09-06T07:28:16.432Z,101613.28
2022-09-06T07:30:44.547Z,101606.13
2022-09-06T07:33:13.962Z,101611.09
2022-09-06T07:35:41.972Z,101606.69
2022-09-06T07:38:10.009Z,101601.75
2022-09-06T07:40:38.058Z,101599.81
2022-09-06T07:43:06.086Z,101586.09
2022-09-06T07:45:35.642Z,101601.31
2022-09-06T07:48:03.992Z,101606.22
2022-09-06T07:50:49.773Z,101612.06
2022-09-06T07:53:27.692Z,101610.88
2022-09-06T07:55:58.660Z,101603.66
2022-09-06T07:58:26.747Z,101608.41
2022-09-06T08:00:54.908Z,101615.25
2022-09-06T08:03:23.195Z,101615.84
2022-09-06T08:11:26.124Z,101603.97
2022-09-06T08:13:55.898Z,101610.69
2022-09-06T08:16:25.437Z,101606.53
2022-09-06T08:18:54.677Z,101601.03
2022-09-06T08:21:25.445Z,101603.91
2022-09-06T08:23:55.414Z,101602.97
2022-09-06T08:26:25.053Z,101608.19
2022-09-06T08:28:58.096Z,101618.63
2022-09-06T08:31:26.168Z,101617.75
2022-09-06T08:33:54.949Z,101616.94
2022-09-06T08:36:27.167Z,101617.31
2022-09-06T08:38:55.330Z,101620.00
2022-09-06T08:41:27.411Z,101620.31
2022-09-06T08:46:53.796Z,101637.13
2022-09-06T08:49:22.465Z,101630.19
2022-09-06T08:52:08.592Z,101627.63
2022-09-06T08:54:41.196Z,101620.25
2022-09-06T08:57:14.680Z,101616.00
2022-09-06T08:59:44.040Z,101594.19
2022-09-06T09:02:14.619Z,101610.06
2022-09-06T09:04:46.747Z,101620.00
2022-09-06T09:07:41.269Z,101622.13
2022-09-06T09:10:14.879Z,101596.59
2022-09-06T09:12:48.388Z,101621.53
2022-09-06T09:15:19.758Z,101613.31
2022-09-06T09:17:50.286Z,101612.28
2022-09-06T09:20:18.832Z,101612.38
2022-09-06T09:22:48.862Z,101608.28
2022-09-06T09:25:22.436Z,101602.09
2022-09-06T09:27:57.526Z,101606.81
2022-09-06T09:33:23.735Z,101592.75
2022-09-06T09:35:52.814Z,101584.09
2022-09-06T09:38:25.172Z,101584.59
2022-09-06T09:40:55.096Z,101581.72
2022-09-06T09:43:25.610Z,101577.91
2022-09-06T09:46:16.119Z,101582.03
2022-09-06T09:49:00.878Z,101574.81
2022-09-06T09:51:30.877Z,101576.00
2022-09-06T09:54:01.876Z,101577.41
2022-09-06T09:56:37.927Z,101569.41
2022-09-06T09:59:16.708Z,101529.44
2022-09-06T10:01:45.424Z,101562.97
2022-09-06T10:07:13.807Z,101555.63
2022-09-06T10:09:44.631Z,101559.22
2022-09-06T10:12:18.431Z,101552.47
2022-09-06T10:14:48.589Z,101538.94
2022-09-06T10:17:22.385Z,101546.16
2022-09-06T10:19:50.486Z,101543.31
2022-09-06T10:22:27.201Z,101540.38
2022-09-06T10:25:22.801Z,101537.09
2022-09-06T10:28:11.288Z,101538.84
2022-09-06T10:30:48.860Z,101533.91
2022-09-06T10:33:30.932Z,101516.03
2022-09-06T10:36:02.781Z,101513.16
2022-09-06T10:38:42.690Z,101519.53
2022-09-06T10:41:33.156Z,101508.47
2022-09-06T10:44:13.693Z,101507.41
2022-09-06T10:46:46.155Z,101507.00
2022-09-06T10:49:19.449Z,101502.72
2022-09-06T10:51:51.352Z,101502.34
2022-09-06T10:54:23.202Z,101510.03
2022-09-06T10:56:56.878Z,101504.63
2022-09-06T10:59:38.070Z,101495.09
2022-09-06T11:02:17.886Z,101500.97
2022-09-06T11:07:41.460Z,101513.81
2022-09-06T11:10:17.515Z,101513.38
2022-09-06T11:12:50.734Z,101515.13
2022-09-06T11:15:20.802Z,101515.88
2022-09-06T11:17:55.836Z,101502.44
2022-09-06T11:20:31.976Z,101516.34
2022-09-06T11:23:20.036Z,101510.38
2022-09-06T11:26:14.682Z,101509.00
2022-09-06T11:28:47.410Z,101510.06
2022-09-06T11:34:20.068Z,101512.50
2022-09-06T11:36:49.382Z,101524.38
2022-09-06T11:42:41.759Z,101516.25
2022-09-06T11:45:21.587Z,101516.63
2022-09-06T11:47:50.746Z,101510.66
2022-09-06T11:51:02.158Z,101508.13
2022-09-06T11:53:32.874Z,101510.75
2022-09-06T11:56:26.956Z,101507.09
2022-09-06T11:58:58.713Z,101513.19
2022-09-06T12:01:38.593Z,101502.72
2022-09-06T12:04:09.979Z,101509.34
2022-09-06T12:06:41.261Z,101502.97
2022-09-06T12:09:33.230Z,101482.53
2022-09-06T12:12:02.210Z,101504.03
2022-09-06T12:14:40.708Z,101502.25
2022-09-06T12:17:28.460Z,101503.25
2022-09-06T12:20:07.018Z,101496.75
2022-09-06T12:23:02.091Z,101502.97
2022-09-06T12:25:58.681Z,101496.94
2022-09-06T12:28:36.190Z,101497.03
2022-09-06T12:31:24.409Z,101490.56
2022-09-06T12:33:54.798Z,101484.03
2022-09-06T12:36:29.761Z,101488.13
2022-09-06T12:39:00.287Z,101483.28
2022-09-06T12:41:30.646Z,101493.00
2022-09-06T12:44:00.880Z,101481.22
2022-09-06T12:46:31.446Z,101465.50
2022-09-06T12:49:07.154Z,101471.88
2022-09-06T12:51:35.845Z,101467.69
2022-09-06T12:54:06.228Z,101461.31
2022-09-06T12:56:35.304Z,101457.00
2022-09-06T12:59:14.343Z,101457.38
2022-09-06T13:01:45.774Z,101458.16
2022-09-06T13:04:24.187Z,101452.63
2022-09-06T13:06:52.603Z,101454.06
2022-09-06T13:09:23.704Z,101454.91
2022-09-06T13:11:53.957Z,101450.88
2022-09-06T13:14:26.673Z,101448.63
2022-09-06T13:16:57.167Z,101448.81
2022-09-06T13:19:35.782Z,101421.78
2022-09-06T13:22:07.469Z,101439.75
2022-09-06T13:24:47.916Z,101436.75
2022-09-06T13:27:28.151Z,101431.00
2022-09-06T13:29:58.152Z,101432.16
2022-09-06T13:32:28.030Z,101440.09
2022-09-06T13:34:59.982Z,101444.63
2022-09-06T13:37:29.928Z,101433.63
2022-09-06T13:39:58.736Z,101432.34
2022-09-06T13:42:30.035Z,101440.97
2022-09-06T13:45:02.206Z,101439.47
2022-09-06T13:47:31.174Z,101441.13
2022-09-06T13:50:00.569Z,101440.44
2022-09-06T13:52:29.282Z,101443.34
2022-09-06T13:54:57.318Z,101456.25
2022-09-06T13:57:25.347Z,101450.50
2022-09-06T13:59:53.362Z,101447.97
2022-09-06T14:02:21.460Z,101444.03
2022-09-06T14:04:49.595Z,101438.44
2022-09-06T14:07:19.056Z,101435.59
2022-09-06T14:09:47.758Z,101431.66
2022-09-06T14:12:15.829Z,101434.03
2022-09-06T14:14:44.722Z,101436.09
2022-09-06T14:17:12.844Z,101429.56
2022-09-06T14:19:41.392Z,101435.34
2022-09-06T14:22:09.458Z,101424.06
2022-09-06T14:24:39.246Z,101426.78
2022-09-06T14:27:08.576Z,101429.66
2022-09-06T14:29:36.786Z,101421.53
2022-09-06T14:32:05.066Z,101414.66
2022-09-06T14:34:33.062Z,101412.16
2022-09-06T14:37:01.076Z,101419.16
2022-09-06T14:39:29.150Z,101415.03
2022-09-06T14:41:58.692Z,101413.88
2022-09-06T14:44:27.049Z,101410.59
2022-09-06T14:46:55.124Z,101413.19
2022-09-06T14:49:23.963Z,101405.34
2022-09-06T14:51:53.629Z,101405.59
2022-09-06T14:54:24.147Z,101399.22
2022-09-06T14:56:55.478Z,101397.94
2022-09-06T14:59:24.990Z,101396.25
2022-09-06T15:01:53.197Z,101402.66
2022-09-06T15:04:21.985Z,101398.56
2022-09-06T15:06:50.073Z,101397.06
2022-09-06T15:09:19.544Z,101375.78
2022-09-06T15:11:49.250Z,101399.34
2022-09-06T15:14:19.272Z,101387.59
2022-09-06T15:16:55.293Z,101385.81
2022-09-06T15:19:24.779Z,101369.09
2022-09-06T15:21:52.968Z,101374.59
2022-09-06T15:24:21.845Z,101379.41
2022-09-06T15:26:50.421Z,101374.00
2022-09-06T15:29:19.171Z,101369.44
2022-09-06T15:31:50.431Z,101364.84
2022-09-06T15:34:19.532Z,101373.63
2022-09-06T15:36:47.651Z,101364.41
2022-09-06T15:39:15.997Z,101370.56
2022-09-06T15:41:44.523Z,101367.88
2022-09-06T15:44:14.757Z,101366.91
2022-09-06T15:46:51.109Z,101364.41
2022-09-06T15:49:26.980Z,101365.34
2022-09-06T15:51:56.903Z,101364.47
2022-09-06T15:54:45.142Z,101362.63
2022-09-06T15:57:13.850Z,101365.16
2022-09-06T15:59:42.001Z,101362.63
2022-09-06T16:02:11.823Z,101363.72
2022-09-06T16:04:40.689Z,101356.72
2022-09-06T16:07:09.693Z,101354.97
2022-09-06T16:09:37.816Z,101354.88
2022-09-06T16:12:06.322Z,101352.19
2022-09-06T16:14:34.868Z,101343.72
2022-09-06T16:17:03.020Z,101343.78
2022-09-06T16:19:32.608Z,101342.16
2022-09-06T16:22:00.954Z,101327.47
2022-09-06T16:24:29.115Z,101328.72
2022-09-06T16:26:57.235Z,101336.28
2022-09-06T16:29:25.390Z,101331.78
2022-09-06T16:31:59.485Z,101324.91
2022-09-06T16:34:27.948Z,101319.84
2022-09-06T16:36:57.531Z,101315.38
2022-09-06T16:39:25.686Z,101317.56
2022-09-06T16:41:53.813Z,101321.16
2022-09-06T16:44:21.893Z,101309.31
2022-09-06T16:46:54.248Z,101307.91
2022-09-06T16:49:22.759Z,101302.28
2022-09-06T16:51:52.231Z,101300.72
2022-09-06T16:54:22.137Z,101309.78
2022-09-06T16:56:50.272Z,101314.84
2022-09-06T16:59:18.607Z,101305.50
2022-09-06T17:01:47.381Z,101321.28
2022-09-06T17:04:16.181Z,101290.88
2022-09-06T17:06:45.750Z,101279.13
2022-09-06T17:09:15.855Z,101294.88
2022-09-06T17:11:45.340Z,101295.94
2022-09-06T17:14:13.703Z,101295.84
2022-09-06T17:16:59.102Z,101290.53
2022-09-06T17:19:27.554Z,101287.25
2022-09-06T17:21:55.693Z,101294.34
2022-09-06T17:24:24.035Z,101284.84
2022-09-06T17:26:53.689Z,101280.84
2022-09-06T17:29:21.952Z,101286.06
2022-09-06T17:31:50.073Z,101281.31
2022-09-06T17:34:18.162Z,101286.88
2022-09-06T17:36:46.374Z,101279.41
2022-09-06T17:39:17.603Z,101276.09
2022-09-06T17:41:46.907Z,101295.41
2022-09-06T17:44:19.038Z,101287.97
2022-09-06T17:47:09.150Z,101293.03
2022-09-06T17:49:36.790Z,101296.69
2022-09-06T17:52:05.054Z,101298.44
2022-09-06T17:54:33.414Z,101301.53
2022-09-06T17:57:01.499Z,101297.34
2022-09-06T17:59:35.017Z,101294.06
2022-09-06T18:02:04.156Z,101298.22
2022-09-06T18:04:32.299Z,101305.00
2022-09-06T18:07:00.444Z,101295.41
2022-09-06T18:09:29.022Z,101299.41
2022-09-06T18:11:58.303Z,101300.69
2022-09-06T18:14:28.600Z,101307.19
2022-09-06T18:16:58.215Z,101301.06
2022-09-06T18:19:27.499Z,101300.44
2022-09-06T18:21:57.251Z,101307.72
2022-09-06T18:24:25.582Z,101302.28
2022-09-06T18:26:53.743Z,101301.47
2022-09-06T18:29:22.203Z,101304.41
2022-09-06T18:31:53.417Z,101302.81
2022-09-06T18:34:23.196Z,101303.84
2022-09-06T18:36:51.364Z,101296.66
2022-09-06T18:39:20.416Z,101304.00
2022-09-06T18:42:00.882Z,101315.13
2022-09-06T18:44:32.253Z,101294.25
2022-09-06T18:47:02.226Z,101306.81
2022-09-06T18:49:32.521Z,101306.72
2022-09-06T18:52:01.560Z,101312.19
2022-09-06T18:54:30.550Z,101309.91
2022-09-06T18:56:59.224Z,101321.06
2022-09-06T18:59:28.188Z,101311.38
2022-09-06T19:01:56.683Z,101318.69
2022-09-06T19:04:25.001Z,101322.31
2022-09-06T19:06:54.578Z,101318.28
2022-09-06T19:09:23.119Z,101313.91
2022-09-06T19:11:52.730Z,101324.75
2022-09-06T19:14:21.650Z,101319.75
2022-09-06T19:16:50.821Z,101323.16
2022-09-06T19:19:18.998Z,101325.75
2022-09-06T19:21:47.094Z,101324.28
2022-09-06T19:24:16.689Z,101330.03
2022-09-06T19:26:45.471Z,101324.88
2022-09-06T19:29:15.765Z,101323.59
2022-09-06T19:31:44.460Z,101327.00
2022-09-06T19:34:15.242Z,101325.13
2022-09-06T19:36:44.488Z,101317.03
2022-09-06T19:39:15.387Z,101311.78
2022-09-06T19:41:46.988Z,101317.09
2022-09-06T19:44:16.028Z,101306.56
2022-09-06T19:46:46.779Z,101313.78
2022-09-06T19:49:19.149Z,101314.75
2022-09-06T19:51:48.918Z,101312.84
2022-09-06T19:54:17.841Z,101310.00
2022-09-06T19:56:48.059Z,101312.63
2022-09-06T19:59:17.706Z,101307.22
2022-09-06T20:01:47.660Z,101304.91
2022-09-06T20:04:16.603Z,101305.06
2022-09-06T20:06:46.959Z,101306.00
2022-09-06T20:09:16.525Z,101306.94
2022-09-06T20:11:44.825Z,101304.34
2022-09-06T20:14:14.612Z,101301.94
2022-09-06T20:16:43.072Z,101298.53
2022-09-06T20:19:13.078Z,101296.91
2022-09-06T20:21:41.363Z,101293.31
2022-09-06T20:24:09.972Z,101296.91
2022-09-06T20:26:38.107Z,101299.97
2022-09-06T20:29:06.743Z,101298.94
2022-09-06T20:31:37.589Z,101299.88
2022-09-06T20:34:07.067Z,101309.88
2022-09-06T20:36:35.204Z,101291.25
2022-09-06T20:39:03.407Z,101289.34
2022-09-06T20:41:32.281Z,101287.81
2022-09-06T20:44:01.327Z,101288.69
2022-09-06T20:46:31.075Z,101288.09
2022-09-06T20:49:04.733Z,101278.66
2022-09-06T20:51:34.439Z,101276.97
2022-09-06T20:54:03.785Z,101281.72
2022-09-06T20:56:34.392Z,101280.91
2022-09-06T20:59:04.540Z,101271.22
2022-09-06T21:01:35.075Z,101272.97
2022-09-06T21:04:07.007Z,101269.47
2022-09-06T21:06:37.278Z,101265.25
2022-09-06T21:09:07.493Z,101270.56
2022-09-06T21:11:35.991Z,101264.44
2022-09-06T21:14:04.196Z,101259.19
2022-09-06T21:16:33.041Z,101252.13
2022-09-06T21:19:05.237Z,101258.50
2022-09-06T21:21:35.174Z,101252.13
2022-09-06T21:24:04.758Z,101261.28
2022-09-06T21:26:33.087Z,101249.75
2022-09-06T21:29:01.385Z,101250.75
2022-09-06T21:31:31.121Z,101251.75
2022-09-06T21:34:02.020Z,101253.50
2022-09-06T21:36:33.870Z,101249.06
2022-09-06T21:39:03.611Z,101244.66
2022-09-06T21:41:34.386Z,101246.59
2022-09-06T21:44:03.972Z,101244.19
2022-09-06T21:46:34.516Z,101240.66
2022-09-06T21:49:04.709Z,101217.03
2022-09-06T21:51:34.766Z,101238.06
2022-09-06T21:54:04.390Z,101232.81
2022-09-06T21:56:33.903Z,101228.34
2022-09-06T21:59:02.130Z,101224.75
2022-09-06T22:01:32.957Z,101222.13
2022-09-06T22:04:02.374Z,101224.56
2022-09-06T22:06:32.360Z,101217.28
2022-09-06T22:09:04.259Z,101223.53
2022-09-06T22:11:34.231Z,101212.63
2022-09-06T22:14:03.973Z,101211.91
2022-09-06T22:16:33.879Z,101211.81
2022-09-06T22:19:03.600Z,101208.19
2022-09-06T22:21:32.902Z,101212.63
2022-09-06T22:24:06.880Z,101206.38
2022-09-06T22:26:36.824Z,101196.53
2022-09-06T22:29:07.361Z,101199.31
2022-09-06T22:31:36.568Z,101188.47
2022-09-06T22:34:05.273Z,101184.75
2022-09-06T22:36:33.947Z,101185.78
2022-09-06T22:39:03.447Z,101188.53
2022-09-06T22:41:33.135Z,101191.38
2022-09-06T22:44:01.646Z,101191.66
2022-09-06T22:46:30.961Z,101184.53
2022-09-06T22:48:59.638Z,101190.22
2022-09-06T22:51:27.733Z,101187.75
2022-09-06T22:53:55.843Z,101198.50
2022-09-06T22:56:25.537Z,101202.34
2022-09-06T22:58:53.747Z,101200.66
2022-09-06T23:01:21.943Z,101196.41
2022-09-06T23:03:50.714Z,101199.16
2022-09-06T23:06:19.320Z,101195.84
2022-09-06T23:08:47.442Z,101190.47
2022-09-06T23:11:17.852Z,101182.56
2022-09-06T23:13:47.317Z,101177.19
2022-09-06T23:16:18.488Z,101171.78
2022-09-06T23:18:47.538Z,101171.00
2022-09-06T23:21:18.015Z,101170.13
2022-09-06T23:23:47.045Z,101169.09
2022-09-06T23:26:17.305Z,101167.56
2022-09-06T23:28:47.071Z,101173.09
2022-09-06T23:31:16.786Z,101177.47
2022-09-06T23:33:44.979Z,101177.59
2022-09-06T23:36:14.734Z,101163.47
2022-09-06T23:38:44.185Z,101159.09
2022-09-06T23:41:13.314Z,101146.63
2022-09-06T23:43:43.453Z,101148.63
2022-09-06T23:46:14.780Z,101143.25
2022-09-06T23:48:43.350Z,101146.09
2022-09-06T23:54:58.134Z,101147.38
2022-09-06T23:57:26.255Z,101142.13
2022-09-06T23:59:54.449Z,101147.44
